sensor_id;sensor_type;location;lat;lon;timestamp;P1;durP1;ratioP1;P2;durP2;ratioP2
17361;SDS011;8798;51.938;4.348;2022-11-21T00:01:13;14.60;;;6.20;;
17361;SDS011;8798;51.938;4.348;2022-11-21T00:03:44;10.57;;;5.47;;
17361;SDS011;8798;51.938;4.348;2022-11-21T00:06:12;9.77;;;5.97;;
17361;SDS011;8798;51.938;4.348;2022-11-21T00:08:40;11.37;;;6.27;;
17361;SDS011;8798;51.938;4.348;2022-11-21T00:11:08;10.07;;;5.60;;
17361;SDS011;8798;51.938;4.348;2022-11-21T00:13:36;11.00;;;6.00;;
17361;SDS011;8798;51.938;4.348;2022-11-21T00:16:05;11.77;;;6.37;;
17361;SDS011;8798;51.938;4.348;2022-11-21T00:18:35;10.87;;;6.27;;
17361;SDS011;8798;51.938;4.348;2022-11-21T00:21:04;10.20;;;5.53;;
17361;SDS011;8798;51.938;4.348;2022-11-21T00:23:32;10.70;;;5.83;;
17361;SDS011;8798;51.938;4.348;2022-11-21T00:26:02;10.27;;;5.80;;
17361;SDS011;8798;51.938;4.348;2022-11-21T00:28:31;11.93;;;6.57;;
17361;SDS011;8798;51.938;4.348;2022-11-21T00:30:59;10.20;;;6.23;;
17361;SDS011;8798;51.938;4.348;2022-11-21T00:33:27;9.37;;;5.53;;
17361;SDS011;8798;51.938;4.348;2022-11-21T00:35:56;9.57;;;5.87;;
17361;SDS011;8798;51.938;4.348;2022-11-21T00:38:25;10.07;;;6.07;;
17361;SDS011;8798;51.938;4.348;2022-11-21T00:40:53;10.13;;;5.43;;
17361;SDS011;8798;51.938;4.348;2022-11-21T00:43:21;8.97;;;5.33;;
17361;SDS011;8798;51.938;4.348;2022-11-21T00:45:49;9.60;;;4.90;;
17361;SDS011;8798;51.938;4.348;2022-11-21T00:48:16;11.27;;;6.13;;
17361;SDS011;8798;51.938;4.348;2022-11-21T00:50:46;10.93;;;5.50;;
17361;SDS011;8798;51.938;4.348;2022-11-21T00:53:16;9.70;;;5.77;;
17361;SDS011;8798;51.938;4.348;2022-11-21T00:55:44;9.17;;;4.90;;
17361;SDS011;8798;51.938;4.348;2022-11-21T00:58:11;8.87;;;5.40;;
17361;SDS011;8798;51.938;4.348;2022-11-21T01:00:39;10.23;;;5.43;;
17361;SDS011;8798;51.938;4.348;2022-11-21T01:03:07;9.67;;;5.53;;
17361;SDS011;8798;51.938;4.348;2022-11-21T01:05:35;9.67;;;5.53;;
17361;SDS011;8798;51.938;4.348;2022-11-21T01:08:03;8.77;;;5.20;;
17361;SDS011;8798;51.938;4.348;2022-11-21T01:10:33;10.87;;;5.50;;
17361;SDS011;8798;51.938;4.348;2022-11-21T01:13:02;11.97;;;5.30;;
17361;SDS011;8798;51.938;4.348;2022-11-21T01:15:29;9.90;;;5.57;;
17361;SDS011;8798;51.938;4.348;2022-11-21T01:17:57;10.63;;;5.73;;
17361;SDS011;8798;51.938;4.348;2022-11-21T01:20:25;9.83;;;5.97;;
17361;SDS011;8798;51.938;4.348;2022-11-21T01:22:53;11.20;;;6.23;;
17361;SDS011;8798;51.938;4.348;2022-11-21T01:25:21;9.27;;;5.70;;
17361;SDS011;8798;51.938;4.348;2022-11-21T01:27:50;8.40;;;5.67;;
17361;SDS011;8798;51.938;4.348;2022-11-21T01:30:17;9.57;;;5.80;;
17361;SDS011;8798;51.938;4.348;2022-11-21T01:32:46;10.20;;;5.53;;
17361;SDS011;8798;51.938;4.348;2022-11-21T01:35:15;8.83;;;5.63;;
17361;SDS011;8798;51.938;4.348;2022-11-21T01:37:45;10.33;;;5.23;;
17361;SDS011;8798;51.938;4.348;2022-11-21T01:40:13;10.23;;;5.80;;
17361;SDS011;8798;51.938;4.348;2022-11-21T01:42:56;9.00;;;5.67;;
17361;SDS011;8798;51.938;4.348;2022-11-21T01:45:51;9.73;;;5.77;;
17361;SDS011;8798;51.938;4.348;2022-11-21T01:48:22;10.40;;;5.23;;
17361;SDS011;8798;51.938;4.348;2022-11-21T01:50:55;9.63;;;5.70;;
17361;SDS011;8798;51.938;4.348;2022-11-21T01:53:24;8.97;;;5.87;;
17361;SDS011;8798;51.938;4.348;2022-11-21T01:55:52;12.37;;;5.57;;
17361;SDS011;8798;51.938;4.348;2022-11-21T01:58:22;10.67;;;5.83;;
17361;SDS011;8798;51.938;4.348;2022-11-21T02:00:50;9.73;;;6.17;;
17361;SDS011;8798;51.938;4.348;2022-11-21T02:03:18;11.50;;;6.03;;
17361;SDS011;8798;51.938;4.348;2022-11-21T02:05:51;12.00;;;6.17;;
17361;SDS011;8798;51.938;4.348;2022-11-21T02:08:21;9.43;;;6.13;;
17361;SDS011;8798;51.938;4.348;2022-11-21T02:10:55;13.97;;;6.33;;
17361;SDS011;8798;51.938;4.348;2022-11-21T02:13:31;10.57;;;6.20;;
17361;SDS011;8798;51.938;4.348;2022-11-21T02:15:59;10.47;;;5.97;;
17361;SDS011;8798;51.938;4.348;2022-11-21T02:18:27;10.07;;;5.73;;
17361;SDS011;8798;51.938;4.348;2022-11-21T02:20:57;10.50;;;5.87;;
17361;SDS011;8798;51.938;4.348;2022-11-21T02:23:32;8.77;;;5.50;;
17361;SDS011;8798;51.938;4.348;2022-11-21T02:26:07;12.23;;;5.80;;
17361;SDS011;8798;51.938;4.348;2022-11-21T02:28:36;9.77;;;5.63;;
17361;SDS011;8798;51.938;4.348;2022-11-21T02:31:04;10.33;;;6.27;;
17361;SDS011;8798;51.938;4.348;2022-11-21T02:33:32;10.37;;;6.17;;
17361;SDS011;8798;51.938;4.348;2022-11-21T02:36:00;8.67;;;5.97;;
17361;SDS011;8798;51.938;4.348;2022-11-21T02:38:32;9.53;;;6.23;;
17361;SDS011;8798;51.938;4.348;2022-11-21T02:41:06;10.03;;;6.20;;
17361;SDS011;8798;51.938;4.348;2022-11-21T02:43:41;11.13;;;5.90;;
17361;SDS011;8798;51.938;4.348;2022-11-21T02:46:13;9.60;;;5.87;;
17361;SDS011;8798;51.938;4.348;2022-11-21T02:48:41;10.30;;;5.43;;
17361;SDS011;8798;51.938;4.348;2022-11-21T02:51:10;11.00;;;5.87;;
17361;SDS011;8798;51.938;4.348;2022-11-21T02:53:37;10.10;;;5.43;;
17361;SDS011;8798;51.938;4.348;2022-11-21T02:56:05;9.23;;;5.60;;
17361;SDS011;8798;51.938;4.348;2022-11-21T02:58:35;10.63;;;6.17;;
17361;SDS011;8798;51.938;4.348;2022-11-21T03:01:03;10.77;;;6.00;;
17361;SDS011;8798;51.938;4.348;2022-11-21T03:03:30;9.77;;;6.13;;
17361;SDS011;8798;51.938;4.348;2022-11-21T03:05:58;9.37;;;5.80;;
17361;SDS011;8798;51.938;4.348;2022-11-21T03:08:26;8.07;;;5.13;;
17361;SDS011;8798;51.938;4.348;2022-11-21T03:10:55;9.13;;;5.47;;
17361;SDS011;8798;51.938;4.348;2022-11-21T03:13:22;9.53;;;6.03;;
17361;SDS011;8798;51.938;4.348;2022-11-21T03:15:52;8.43;;;5.17;;
17361;SDS011;8798;51.938;4.348;2022-11-21T03:18:20;9.23;;;5.80;;
17361;SDS011;8798;51.938;4.348;2022-11-21T03:20:48;10.13;;;5.73;;
17361;SDS011;8798;51.938;4.348;2022-11-21T03:23:15;10.13;;;5.30;;
17361;SDS011;8798;51.938;4.348;2022-11-21T03:25:43;10.43;;;6.37;;
17361;SDS011;8798;51.938;4.348;2022-11-21T03:28:11;10.23;;;5.73;;
17361;SDS011;8798;51.938;4.348;2022-11-21T03:30:38;12.40;;;6.03;;
17361;SDS011;8798;51.938;4.348;2022-11-21T03:33:07;9.60;;;5.63;;
17361;SDS011;8798;51.938;4.348;2022-11-21T03:35:35;11.00;;;6.17;;
17361;SDS011;8798;51.938;4.348;2022-11-21T03:38:03;12.63;;;5.73;;
17361;SDS011;8798;51.938;4.348;2022-11-21T03:40:31;10.60;;;5.97;;
17361;SDS011;8798;51.938;4.348;2022-11-21T03:43:02;10.23;;;5.83;;
17361;SDS011;8798;51.938;4.348;2022-11-21T03:45:31;10.17;;;5.53;;
17361;SDS011;8798;51.938;4.348;2022-11-21T03:47:59;8.03;;;5.00;;
17361;SDS011;8798;51.938;4.348;2022-11-21T03:50:28;9.07;;;5.43;;
17361;SDS011;8798;51.938;4.348;2022-11-21T03:52:56;9.93;;;6.10;;
17361;SDS011;8798;51.938;4.348;2022-11-21T03:55:23;9.43;;;5.73;;
17361;SDS011;8798;51.938;4.348;2022-11-21T03:57:51;9.43;;;5.57;;
17361;SDS011;8798;51.938;4.348;2022-11-21T04:00:19;11.73;;;5.90;;
17361;SDS011;8798;51.938;4.348;2022-11-21T04:02:47;14.10;;;5.63;;
17361;SDS011;8798;51.938;4.348;2022-11-21T04:05:14;10.60;;;6.03;;
17361;SDS011;8798;51.938;4.348;2022-11-21T04:07:44;9.00;;;5.57;;
17361;SDS011;8798;51.938;4.348;2022-11-21T04:10:12;11.60;;;6.30;;
17361;SDS011;8798;51.938;4.348;2022-11-21T04:12:40;10.03;;;5.97;;
17361;SDS011;8798;51.938;4.348;2022-11-21T04:15:07;9.00;;;5.50;;
17361;SDS011;8798;51.938;4.348;2022-11-21T04:17:39;8.63;;;5.40;;
17361;SDS011;8798;51.938;4.348;2022-11-21T04:20:07;9.03;;;5.60;;
17361;SDS011;8798;51.938;4.348;2022-11-21T04:22:35;8.53;;;5.50;;
17361;SDS011;8798;51.938;4.348;2022-11-21T04:25:05;8.67;;;5.67;;
17361;SDS011;8798;51.938;4.348;2022-11-21T04:27:34;8.20;;;5.17;;
17361;SDS011;8798;51.938;4.348;2022-11-21T04:30:01;10.30;;;5.37;;
17361;SDS011;8798;51.938;4.348;2022-11-21T04:32:29;9.87;;;5.97;;
17361;SDS011;8798;51.938;4.348;2022-11-21T04:34:57;8.67;;;5.40;;
17361;SDS011;8798;51.938;4.348;2022-11-21T04:37:25;9.77;;;5.53;;
17361;SDS011;8798;51.938;4.348;2022-11-21T04:39:53;13.33;;;6.00;;
17361;SDS011;8798;51.938;4.348;2022-11-21T04:42:22;11.13;;;6.00;;
17361;SDS011;8798;51.938;4.348;2022-11-21T04:44:50;10.67;;;6.40;;
17361;SDS011;8798;51.938;4.348;2022-11-21T04:47:18;10.00;;;5.67;;
17361;SDS011;8798;51.938;4.348;2022-11-21T04:49:46;10.63;;;5.73;;
17361;SDS011;8798;51.938;4.348;2022-11-21T04:52:13;11.63;;;5.90;;
17361;SDS011;8798;51.938;4.348;2022-11-21T04:54:41;9.77;;;5.90;;
17361;SDS011;8798;51.938;4.348;2022-11-21T04:57:09;9.57;;;5.67;;
17361;SDS011;8798;51.938;4.348;2022-11-21T04:59:38;9.03;;;5.57;;
17361;SDS011;8798;51.938;4.348;2022-11-21T05:02:06;11.73;;;6.10;;
17361;SDS011;8798;51.938;4.348;2022-11-21T05:04:34;10.73;;;6.40;;
17361;SDS011;8798;51.938;4.348;2022-11-21T05:07:01;13.40;;;6.13;;
17361;SDS011;8798;51.938;4.348;2022-11-21T05:09:29;12.53;;;6.27;;
17361;SDS011;8798;51.938;4.348;2022-11-21T05:11:57;12.10;;;6.37;;
17361;SDS011;8798;51.938;4.348;2022-11-21T05:14:43;11.03;;;5.93;;
17361;SDS011;8798;51.938;4.348;2022-11-21T05:17:11;9.90;;;5.87;;
17361;SDS011;8798;51.938;4.348;2022-11-21T05:19:39;11.80;;;6.00;;
17361;SDS011;8798;51.938;4.348;2022-11-21T05:22:07;10.83;;;6.33;;
17361;SDS011;8798;51.938;4.348;2022-11-21T05:24:34;12.67;;;7.00;;
17361;SDS011;8798;51.938;4.348;2022-11-21T05:27:02;11.33;;;6.80;;
17361;SDS011;8798;51.938;4.348;2022-11-21T05:29:30;10.80;;;6.30;;
17361;SDS011;8798;51.938;4.348;2022-11-21T05:32:00;9.57;;;5.63;;
17361;SDS011;8798;51.938;4.348;2022-11-21T05:34:27;9.80;;;5.93;;
17361;SDS011;8798;51.938;4.348;2022-11-21T05:36:56;11.30;;;6.90;;
17361;SDS011;8798;51.938;4.348;2022-11-21T05:39:24;9.90;;;5.30;;
17361;SDS011;8798;51.938;4.348;2022-11-21T05:41:53;7.80;;;5.30;;
17361;SDS011;8798;51.938;4.348;2022-11-21T05:44:28;10.87;;;5.40;;
17361;SDS011;8798;51.938;4.348;2022-11-21T05:46:55;10.67;;;5.63;;
17361;SDS011;8798;51.938;4.348;2022-11-21T05:49:24;10.10;;;5.60;;
17361;SDS011;8798;51.938;4.348;2022-11-21T05:51:52;9.30;;;5.70;;
17361;SDS011;8798;51.938;4.348;2022-11-21T05:54:20;10.80;;;6.17;;
17361;SDS011;8798;51.938;4.348;2022-11-21T05:56:48;9.80;;;5.17;;
17361;SDS011;8798;51.938;4.348;2022-11-21T05:59:15;11.90;;;6.33;;
17361;SDS011;8798;51.938;4.348;2022-11-21T06:01:43;9.63;;;5.67;;
17361;SDS011;8798;51.938;4.348;2022-11-21T06:04:30;10.47;;;5.10;;
17361;SDS011;8798;51.938;4.348;2022-11-21T06:06:57;7.50;;;4.93;;
17361;SDS011;8798;51.938;4.348;2022-11-21T06:09:31;8.47;;;5.23;;
17361;SDS011;8798;51.938;4.348;2022-11-21T06:11:58;9.40;;;4.90;;
17361;SDS011;8798;51.938;4.348;2022-11-21T06:14:26;11.63;;;5.33;;
17361;SDS011;8798;51.938;4.348;2022-11-21T06:16:54;8.57;;;5.03;;
17361;SDS011;8798;51.938;4.348;2022-11-21T06:19:22;11.13;;;4.97;;
17361;SDS011;8798;51.938;4.348;2022-11-21T06:21:51;10.30;;;5.27;;
17361;SDS011;8798;51.938;4.348;2022-11-21T06:24:19;11.03;;;5.30;;
17361;SDS011;8798;51.938;4.348;2022-11-21T06:26:47;9.23;;;5.37;;
17361;SDS011;8798;51.938;4.348;2022-11-21T06:29:15;9.67;;;4.90;;
17361;SDS011;8798;51.938;4.348;2022-11-21T06:31:43;11.30;;;5.80;;
17361;SDS011;8798;51.938;4.348;2022-11-21T06:34:11;8.27;;;5.07;;
17361;SDS011;8798;51.938;4.348;2022-11-21T06:36:38;8.17;;;5.00;;
17361;SDS011;8798;51.938;4.348;2022-11-21T06:39:08;9.37;;;5.40;;
17361;SDS011;8798;51.938;4.348;2022-11-21T06:41:35;11.10;;;5.77;;
17361;SDS011;8798;51.938;4.348;2022-11-21T06:44:03;11.10;;;5.70;;
17361;SDS011;8798;51.938;4.348;2022-11-21T06:46:31;8.07;;;5.33;;
17361;SDS011;8798;51.938;4.348;2022-11-21T06:48:59;9.00;;;5.27;;
17361;SDS011;8798;51.938;4.348;2022-11-21T06:51:27;9.63;;;5.70;;
17361;SDS011;8798;51.938;4.348;2022-11-21T06:53:56;8.23;;;4.70;;
17361;SDS011;8798;51.938;4.348;2022-11-21T06:56:27;8.90;;;4.93;;
17361;SDS011;8798;51.938;4.348;2022-11-21T06:58:56;6.33;;;4.47;;
17361;SDS011;8798;51.938;4.348;2022-11-21T07:01:24;8.20;;;5.20;;
17361;SDS011;8798;51.938;4.348;2022-11-21T07:03:53;9.50;;;5.47;;
17361;SDS011;8798;51.938;4.348;2022-11-21T07:06:21;7.87;;;4.63;;
17361;SDS011;8798;51.938;4.348;2022-11-21T07:08:51;8.13;;;4.47;;
17361;SDS011;8798;51.938;4.348;2022-11-21T07:11:41;6.37;;;4.37;;
17361;SDS011;8798;51.938;4.348;2022-11-21T07:14:09;8.10;;;4.93;;
17361;SDS011;8798;51.938;4.348;2022-11-21T07:16:36;6.63;;;4.50;;
17361;SDS011;8798;51.938;4.348;2022-11-21T07:19:04;7.43;;;4.97;;
17361;SDS011;8798;51.938;4.348;2022-11-21T07:21:32;7.00;;;4.13;;
17361;SDS011;8798;51.938;4.348;2022-11-21T07:24:00;8.23;;;5.37;;
17361;SDS011;8798;51.938;4.348;2022-11-21T07:26:28;7.00;;;4.53;;
17361;SDS011;8798;51.938;4.348;2022-11-21T07:28:58;7.70;;;4.40;;
17361;SDS011;8798;51.938;4.348;2022-11-21T07:31:26;6.17;;;4.03;;
17361;SDS011;8798;51.938;4.348;2022-11-21T07:33:54;8.03;;;4.50;;
17361;SDS011;8798;51.938;4.348;2022-11-21T07:36:21;8.63;;;4.90;;
17361;SDS011;8798;51.938;4.348;2022-11-21T07:38:49;7.73;;;4.10;;
17361;SDS011;8798;51.938;4.348;2022-11-21T07:41:17;8.67;;;4.17;;
17361;SDS011;8798;51.938;4.348;2022-11-21T07:43:45;8.20;;;4.60;;
17361;SDS011;8798;51.938;4.348;2022-11-21T07:46:14;7.70;;;4.10;;
17361;SDS011;8798;51.938;4.348;2022-11-21T07:48:42;6.33;;;4.07;;
17361;SDS011;8798;51.938;4.348;2022-11-21T07:51:10;7.17;;;4.10;;
17361;SDS011;8798;51.938;4.348;2022-11-21T07:53:38;5.33;;;3.27;;
17361;SDS011;8798;51.938;4.348;2022-11-21T07:56:05;5.63;;;2.53;;
17361;SDS011;8798;51.938;4.348;2022-11-21T07:58:34;4.03;;;2.10;;
17361;SDS011;8798;51.938;4.348;2022-11-21T08:01:03;4.53;;;2.17;;
17361;SDS011;8798;51.938;4.348;2022-11-21T08:03:33;2.97;;;1.80;;
17361;SDS011;8798;51.938;4.348;2022-11-21T08:06:01;5.60;;;2.03;;
17361;SDS011;8798;51.938;4.348;2022-11-21T08:08:30;2.57;;;1.43;;
17361;SDS011;8798;51.938;4.348;2022-11-21T08:10:58;4.20;;;1.47;;
17361;SDS011;8798;51.938;4.348;2022-11-21T08:13:30;2.23;;;1.13;;
17361;SDS011;8798;51.938;4.348;2022-11-21T08:16:00;3.70;;;1.13;;
17361;SDS011;8798;51.938;4.348;2022-11-21T08:18:29;2.00;;;1.00;;
17361;SDS011;8798;51.938;4.348;2022-11-21T08:21:00;2.40;;;0.90;;
17361;SDS011;8798;51.938;4.348;2022-11-21T08:23:29;1.63;;;1.10;;
17361;SDS011;8798;51.938;4.348;2022-11-21T08:25:58;1.23;;;1.00;;
17361;SDS011;8798;51.938;4.348;2022-11-21T08:28:26;2.10;;;1.00;;
17361;SDS011;8798;51.938;4.348;2022-11-21T08:30:54;3.77;;;0.90;;
17361;SDS011;8798;51.938;4.348;2022-11-21T08:33:22;2.03;;;0.83;;
17361;SDS011;8798;51.938;4.348;2022-11-21T08:35:50;2.27;;;0.83;;
17361;SDS011;8798;51.938;4.348;2022-11-21T08:38:19;2.97;;;1.10;;
17361;SDS011;8798;51.938;4.348;2022-11-21T08:40:47;3.20;;;0.90;;
17361;SDS011;8798;51.938;4.348;2022-11-21T08:43:42;5.10;;;0.90;;
17361;SDS011;8798;51.938;4.348;2022-11-21T08:46:10;2.60;;;1.00;;
17361;SDS011;8798;51.938;4.348;2022-11-21T08:48:38;2.83;;;1.10;;
17361;SDS011;8798;51.938;4.348;2022-11-21T08:51:06;1.63;;;0.80;;
17361;SDS011;8798;51.938;4.348;2022-11-21T08:53:35;4.50;;;1.00;;
17361;SDS011;8798;51.938;4.348;2022-11-21T08:56:03;3.03;;;0.97;;
17361;SDS011;8798;51.938;4.348;2022-11-21T08:58:31;3.53;;;0.97;;
17361;SDS011;8798;51.938;4.348;2022-11-21T09:00:59;2.20;;;1.00;;
17361;SDS011;8798;51.938;4.348;2022-11-21T09:03:26;4.07;;;1.00;;
17361;SDS011;8798;51.938;4.348;2022-11-21T09:05:57;5.00;;;1.10;;
17361;SDS011;8798;51.938;4.348;2022-11-21T09:08:26;5.97;;;1.37;;
17361;SDS011;8798;51.938;4.348;2022-11-21T09:10:55;2.77;;;1.03;;
17361;SDS011;8798;51.938;4.348;2022-11-21T09:13:24;2.07;;;1.10;;
17361;SDS011;8798;51.938;4.348;2022-11-21T09:15:52;2.03;;;1.00;;
17361;SDS011;8798;51.938;4.348;2022-11-21T09:18:42;2.03;;;0.83;;
17361;SDS011;8798;51.938;4.348;2022-11-21T09:21:12;5.80;;;1.17;;
17361;SDS011;8798;51.938;4.348;2022-11-21T09:23:41;2.43;;;1.13;;
17361;SDS011;8798;51.938;4.348;2022-11-21T09:26:10;3.90;;;1.30;;
17361;SDS011;8798;51.938;4.348;2022-11-21T09:28:39;2.93;;;1.20;;
17361;SDS011;8798;51.938;4.348;2022-11-21T09:31:07;4.30;;;1.43;;
17361;SDS011;8798;51.938;4.348;2022-11-21T09:33:35;4.83;;;1.33;;
17361;SDS011;8798;51.938;4.348;2022-11-21T09:36:03;4.33;;;1.27;;
17361;SDS011;8798;51.938;4.348;2022-11-21T09:38:31;4.90;;;1.20;;
17361;SDS011;8798;51.938;4.348;2022-11-21T09:41:01;2.97;;;1.30;;
17361;SDS011;8798;51.938;4.348;2022-11-21T09:43:58;5.73;;;1.60;;
17361;SDS011;8798;51.938;4.348;2022-11-21T09:46:34;2.57;;;1.43;;
17361;SDS011;8798;51.938;4.348;2022-11-21T09:49:06;2.20;;;1.30;;
17361;SDS011;8798;51.938;4.348;2022-11-21T09:51:39;2.87;;;1.37;;
17361;SDS011;8798;51.938;4.348;2022-11-21T09:54:13;2.90;;;1.47;;
17361;SDS011;8798;51.938;4.348;2022-11-21T09:56:46;6.50;;;1.93;;
17361;SDS011;8798;51.938;4.348;2022-11-21T09:59:22;5.13;;;1.37;;
17361;SDS011;8798;51.938;4.348;2022-11-21T10:01:58;5.47;;;1.10;;
17361;SDS011;8798;51.938;4.348;2022-11-21T10:04:26;4.27;;;1.30;;
17361;SDS011;8798;51.938;4.348;2022-11-21T10:06:57;3.17;;;1.30;;
17361;SDS011;8798;51.938;4.348;2022-11-21T10:09:32;4.27;;;1.60;;
17361;SDS011;8798;51.938;4.348;2022-11-21T10:12:14;5.43;;;1.57;;
17361;SDS011;8798;51.938;4.348;2022-11-21T10:15:09;6.00;;;1.50;;
17361;SDS011;8798;51.938;4.348;2022-11-21T10:17:48;4.70;;;1.53;;
17361;SDS011;8798;51.938;4.348;2022-11-21T10:20:32;2.63;;;1.27;;
17361;SDS011;8798;51.938;4.348;2022-11-21T10:23:20;3.40;;;1.60;;
17361;SDS011;8798;51.938;4.348;2022-11-21T10:26:05;5.27;;;1.40;;
17361;SDS011;8798;51.938;4.348;2022-11-21T10:28:44;9.47;;;1.87;;
17361;SDS011;8798;51.938;4.348;2022-11-21T10:31:16;5.17;;;1.70;;
17361;SDS011;8798;51.938;4.348;2022-11-21T10:33:46;4.63;;;1.80;;
17361;SDS011;8798;51.938;4.348;2022-11-21T10:36:19;4.83;;;1.60;;
17361;SDS011;8798;51.938;4.348;2022-11-21T10:38:54;6.60;;;1.67;;
17361;SDS011;8798;51.938;4.348;2022-11-21T10:41:33;7.13;;;2.07;;
17361;SDS011;8798;51.938;4.348;2022-11-21T10:44:11;5.67;;;1.93;;
17361;SDS011;8798;51.938;4.348;2022-11-21T10:47:12;4.47;;;1.90;;
17361;SDS011;8798;51.938;4.348;2022-11-21T10:49:41;6.70;;;2.23;;
17361;SDS011;8798;51.938;4.348;2022-11-21T10:52:10;5.73;;;2.10;;
17361;SDS011;8798;51.938;4.348;2022-11-21T10:57:30;8.03;;;2.70;;
17361;SDS011;8798;51.938;4.348;2022-11-21T11:00:14;6.03;;;2.43;;
17361;SDS011;8798;51.938;4.348;2022-11-21T11:02:58;5.37;;;2.10;;
17361;SDS011;8798;51.938;4.348;2022-11-21T11:05:31;8.43;;;2.33;;
17361;SDS011;8798;51.938;4.348;2022-11-21T11:08:03;10.07;;;3.07;;
17361;SDS011;8798;51.938;4.348;2022-11-21T11:10:33;8.00;;;3.23;;
17361;SDS011;8798;51.938;4.348;2022-11-21T11:13:09;9.67;;;2.73;;
17361;SDS011;8798;51.938;4.348;2022-11-21T11:16:16;8.40;;;2.97;;
17361;SDS011;8798;51.938;4.348;2022-11-21T11:18:49;8.43;;;2.93;;
17361;SDS011;8798;51.938;4.348;2022-11-21T11:21:23;6.30;;;2.27;;
17361;SDS011;8798;51.938;4.348;2022-11-21T11:23:54;4.30;;;1.90;;
17361;SDS011;8798;51.938;4.348;2022-11-21T11:26:33;7.17;;;1.80;;
17361;SDS011;8798;51.938;4.348;2022-11-21T11:29:08;3.77;;;1.50;;
17361;SDS011;8798;51.938;4.348;2022-11-21T11:31:42;2.57;;;1.23;;
17361;SDS011;8798;51.938;4.348;2022-11-21T11:34:15;7.77;;;1.77;;
17361;SDS011;8798;51.938;4.348;2022-11-21T11:36:47;2.93;;;1.33;;
17361;SDS011;8798;51.938;4.348;2022-11-21T11:39:25;3.33;;;1.40;;
17361;SDS011;8798;51.938;4.348;2022-11-21T11:42:09;6.80;;;1.10;;
17361;SDS011;8798;51.938;4.348;2022-11-21T11:45:19;3.67;;;1.20;;
17361;SDS011;8798;51.938;4.348;2022-11-21T11:48:16;5.57;;;1.30;;
17361;SDS011;8798;51.938;4.348;2022-11-21T11:50:45;2.37;;;1.17;;
17361;SDS011;8798;51.938;4.348;2022-11-21T11:53:16;2.83;;;1.27;;
17361;SDS011;8798;51.938;4.348;2022-11-21T11:55:47;1.43;;;0.80;;
17361;SDS011;8798;51.938;4.348;2022-11-21T11:58:20;3.43;;;1.03;;
17361;SDS011;8798;51.938;4.348;2022-11-21T12:00:56;4.37;;;1.13;;
17361;SDS011;8798;51.938;4.348;2022-11-21T12:03:33;5.63;;;1.30;;
17361;SDS011;8798;51.938;4.348;2022-11-21T12:06:10;2.20;;;1.00;;
17361;SDS011;8798;51.938;4.348;2022-11-21T12:08:44;1.27;;;0.63;;
17361;SDS011;8798;51.938;4.348;2022-11-21T12:11:22;3.13;;;1.10;;
17361;SDS011;8798;51.938;4.348;2022-11-21T12:14:14;3.60;;;1.00;;
17361;SDS011;8798;51.938;4.348;2022-11-21T12:17:03;2.43;;;1.03;;
17361;SDS011;8798;51.938;4.348;2022-11-21T12:19:35;2.57;;;0.67;;
17361;SDS011;8798;51.938;4.348;2022-11-21T12:22:04;2.80;;;1.00;;
17361;SDS011;8798;51.938;4.348;2022-11-21T12:24:34;3.57;;;0.90;;
17361;SDS011;8798;51.938;4.348;2022-11-21T12:27:13;4.37;;;1.13;;
17361;SDS011;8798;51.938;4.348;2022-11-21T12:29:52;7.67;;;1.63;;
17361;SDS011;8798;51.938;4.348;2022-11-21T12:32:37;3.17;;;0.90;;
17361;SDS011;8798;51.938;4.348;2022-11-21T12:35:23;5.40;;;1.50;;
17361;SDS011;8798;51.938;4.348;2022-11-21T12:38:03;6.47;;;1.60;;
17361;SDS011;8798;51.938;4.348;2022-11-21T12:40:44;4.43;;;1.57;;
17361;SDS011;8798;51.938;4.348;2022-11-21T12:43:23;5.60;;;1.87;;
17361;SDS011;8798;51.938;4.348;2022-11-21T12:46:00;3.00;;;1.50;;
17361;SDS011;8798;51.938;4.348;2022-11-21T12:48:36;2.47;;;1.40;;
17361;SDS011;8798;51.938;4.348;2022-11-21T12:55:00;7.00;;;2.17;;
17361;SDS011;8798;51.938;4.348;2022-11-21T12:57:39;5.07;;;2.10;;
17361;SDS011;8798;51.938;4.348;2022-11-21T13:00:16;8.43;;;2.10;;
17361;SDS011;8798;51.938;4.348;2022-11-21T13:03:00;8.20;;;2.00;;
17361;SDS011;8798;51.938;4.348;2022-11-21T13:05:44;4.73;;;2.30;;
17361;SDS011;8798;51.938;4.348;2022-11-21T13:08:17;5.10;;;1.90;;
17361;SDS011;8798;51.938;4.348;2022-11-21T13:10:51;3.43;;;1.63;;
17361;SDS011;8798;51.938;4.348;2022-11-21T13:13:42;5.57;;;1.93;;
17361;SDS011;8798;51.938;4.348;2022-11-21T13:16:15;4.80;;;1.67;;
17361;SDS011;8798;51.938;4.348;2022-11-21T13:19:03;5.50;;;1.67;;
17361;SDS011;8798;51.938;4.348;2022-11-21T13:21:44;3.40;;;1.40;;
17361;SDS011;8798;51.938;4.348;2022-11-21T13:27:24;4.10;;;1.27;;
17361;SDS011;8798;51.938;4.348;2022-11-21T13:30:22;3.60;;;1.60;;
17361;SDS011;8798;51.938;4.348;2022-11-21T13:32:51;3.83;;;1.20;;
17361;SDS011;8798;51.938;4.348;2022-11-21T13:38:30;4.23;;;1.13;;
17361;SDS011;8798;51.938;4.348;2022-11-21T13:40:59;4.50;;;1.23;;
17361;SDS011;8798;51.938;4.348;2022-11-21T13:43:45;4.53;;;1.33;;
17361;SDS011;8798;51.938;4.348;2022-11-21T13:46:20;6.20;;;1.60;;
17361;SDS011;8798;51.938;4.348;2022-11-21T13:49:24;4.23;;;1.50;;
17361;SDS011;8798;51.938;4.348;2022-11-21T13:51:59;7.17;;;1.50;;
17361;SDS011;8798;51.938;4.348;2022-11-21T13:54:40;3.00;;;1.43;;
17361;SDS011;8798;51.938;4.348;2022-11-21T13:57:39;5.10;;;1.37;;
17361;SDS011;8798;51.938;4.348;2022-11-21T14:00:23;5.23;;;1.40;;
17361;SDS011;8798;51.938;4.348;2022-11-21T14:03:08;6.73;;;1.50;;
17361;SDS011;8798;51.938;4.348;2022-11-21T14:05:59;1.60;;;0.97;;
17361;SDS011;8798;51.938;4.348;2022-11-21T14:08:36;5.37;;;1.60;;
17361;SDS011;8798;51.938;4.348;2022-11-21T14:11:17;3.07;;;1.37;;
17361;SDS011;8798;51.938;4.348;2022-11-21T14:13:46;4.10;;;1.50;;
17361;SDS011;8798;51.938;4.348;2022-11-21T14:16:23;3.83;;;1.40;;
17361;SDS011;8798;51.938;4.348;2022-11-21T14:18:57;3.27;;;1.50;;
17361;SDS011;8798;51.938;4.348;2022-11-21T14:21:26;4.67;;;1.70;;
17361;SDS011;8798;51.938;4.348;2022-11-21T14:23:57;3.67;;;1.40;;
17361;SDS011;8798;51.938;4.348;2022-11-21T14:26:29;6.03;;;1.97;;
17361;SDS011;8798;51.938;4.348;2022-11-21T14:29:15;2.83;;;1.60;;
17361;SDS011;8798;51.938;4.348;2022-11-21T14:31:46;5.63;;;1.20;;
17361;SDS011;8798;51.938;4.348;2022-11-21T14:34:22;5.27;;;1.60;;
17361;SDS011;8798;51.938;4.348;2022-11-21T14:36:53;2.83;;;1.33;;
17361;SDS011;8798;51.938;4.348;2022-11-21T14:39:24;6.17;;;1.70;;
17361;SDS011;8798;51.938;4.348;2022-11-21T14:42:05;5.50;;;1.63;;
17361;SDS011;8798;51.938;4.348;2022-11-21T14:44:38;7.57;;;1.70;;
17361;SDS011;8798;51.938;4.348;2022-11-21T14:47:11;4.73;;;1.30;;
17361;SDS011;8798;51.938;4.348;2022-11-21T14:49:48;8.10;;;2.23;;
17361;SDS011;8798;51.938;4.348;2022-11-21T14:52:17;5.80;;;1.63;;
17361;SDS011;8798;51.938;4.348;2022-11-21T14:54:50;8.50;;;2.10;;
17361;SDS011;8798;51.938;4.348;2022-11-21T14:57:40;3.73;;;1.90;;
17361;SDS011;8798;51.938;4.348;2022-11-21T15:00:10;3.70;;;1.80;;
17361;SDS011;8798;51.938;4.348;2022-11-21T15:03:03;8.53;;;2.20;;
17361;SDS011;8798;51.938;4.348;2022-11-21T15:05:32;5.43;;;2.10;;
17361;SDS011;8798;51.938;4.348;2022-11-21T15:08:21;3.87;;;2.00;;
17361;SDS011;8798;51.938;4.348;2022-11-21T15:11:09;7.00;;;2.53;;
17361;SDS011;8798;51.938;4.348;2022-11-21T15:13:39;7.23;;;2.30;;
17361;SDS011;8798;51.938;4.348;2022-11-21T15:16:28;4.73;;;2.10;;
17361;SDS011;8798;51.938;4.348;2022-11-21T15:18:57;6.53;;;2.50;;
17361;SDS011;8798;51.938;4.348;2022-11-21T15:21:25;7.70;;;2.53;;
17361;SDS011;8798;51.938;4.348;2022-11-21T15:23:54;4.03;;;2.40;;
17361;SDS011;8798;51.938;4.348;2022-11-21T15:26:26;5.07;;;2.27;;
17361;SDS011;8798;51.938;4.348;2022-11-21T15:28:56;5.73;;;2.37;;
17361;SDS011;8798;51.938;4.348;2022-11-21T15:31:25;9.23;;;2.67;;
17361;SDS011;8798;51.938;4.348;2022-11-21T15:33:54;5.70;;;2.80;;
17361;SDS011;8798;51.938;4.348;2022-11-21T15:36:59;2.40;;;2.00;;
17361;SDS011;8798;51.938;4.348;2022-11-21T15:39:29;7.27;;;2.63;;
17361;SDS011;8798;51.938;4.348;2022-11-21T15:45:01;4.90;;;2.07;;